Time;durP1;ratioP1;P1;durP2;ratioP2;P2;SDS_P1;SDS_P2;PMS_P1;PMS_P2;Temp;Humidity;BMP_temperature;BMP_pressure;BME280_temperature;BME280_humidity;BME280_pressure;Samples;Min_cycle;Max_cycle;Signal;HPM_P1;HPM_P2
2022/09/11 00:01:46;;;;;;;;;8.20;8.20;;;;;25.53;50.46;99181.28;5042327;28;8881;-83
2022/09/11 00:04:15;;;;;;;;;8.80;8.40;;;;;25.48;50.79;99172.72;5052101;28;8926;-83
2022/09/11 00:06:44;;;;;;;;;8.40;8.40;;;;;25.42;50.52;99174.00;5067944;28;9782;-82
2022/09/11 00:09:12;;;;;;;;;9.60;9.60;;;;;25.41;50.48;99180.31;5008022;28;8846;-83
2022/09/11 00:11:43;;;;;;;;;8.60;8.60;;;;;25.20;51.20;99187.91;5008145;28;9719;-82
2022/09/11 00:14:13;;;;;;;;;11.40;9.80;;;;;25.25;50.67;99180.47;5007686;28;8877;-83
2022/09/11 00:16:45;;;;;;;;;10.40;9.20;;;;;25.30;50.92;99180.19;5038083;28;9060;-85
2022/09/11 00:19:17;;;;;;;;;8.60;8.60;;;;;25.30;50.69;99177.50;5047366;28;8862;-85
2022/09/11 00:21:48;;;;;;;;;9.40;9.40;;;;;25.09;51.03;99185.97;5031102;28;8873;-84
2022/09/11 00:24:18;;;;;;;;;9.20;9.20;;;;;25.10;51.05;99182.34;5007771;28;8866;-86
2022/09/11 00:26:47;;;;;;;;;9.00;8.00;;;;;25.14;51.30;99182.13;5012446;28;8944;-86
2022/09/11 00:29:15;;;;;;;;;9.60;9.60;;;;;25.12;51.22;99184.88;5023188;28;8976;-82
2022/09/11 00:31:47;;;;;;;;;12.60;12.60;;;;;25.12;51.66;99189.38;5020961;28;8862;-83
2022/09/11 00:34:16;;;;;;;;;9.60;9.00;;;;;25.01;51.76;99187.41;5022330;28;9693;-82
2022/09/11 00:36:45;;;;;;;;;7.80;7.80;;;;;25.02;51.60;99183.81;5007249;28;9072;-83
2022/09/11 00:39:14;;;;;;;;;10.60;10.60;;;;;24.99;51.92;99176.88;5008348;28;8846;-83
2022/09/11 00:41:45;;;;;;;;;10.00;10.00;;;;;25.03;51.72;99177.53;5071208;28;8840;-83
2022/09/11 00:45:01;;;;;;;;;8.60;8.00;;;;;25.22;51.35;99179.81;5069007;28;8982;-82
2022/09/11 00:47:31;;;;;;;;;11.20;11.20;;;;;24.94;52.16;99175.47;5025522;28;8974;-82
2022/09/11 00:50:07;;;;;;;;;11.00;9.80;;;;;24.18;53.15;99185.59;5009469;28;8857;-82
2022/09/11 00:52:40;;;;;;;;;10.80;9.40;;;;;23.46;54.67;99184.59;5008638;28;8935;-83
2022/09/11 00:55:14;;;;;;;;;8.60;8.60;;;;;23.16;56.02;99190.81;5015498;28;8988;-81
2022/09/11 00:57:48;;;;;;;;;9.00;8.80;;;;;23.02;57.08;99186.22;4982537;28;9000;-81
2022/09/11 01:00:17;;;;;;;;;9.60;9.60;;;;;22.75;58.57;99191.31;5015714;28;9680;-82
2022/09/11 01:02:49;;;;;;;;;9.80;9.80;;;;;22.54;59.63;99196.91;5015600;28;8852;-81
2022/09/11 01:05:21;;;;;;;;;13.20;12.20;;;;;22.82;58.73;99190.03;5029563;28;8861;-82
2022/09/11 01:07:53;;;;;;;;;10.80;10.00;;;;;23.07;57.98;99192.19;5029525;28;8956;-81
2022/09/11 01:10:32;;;;;;;;;11.20;11.00;;;;;23.30;57.03;99193.50;5032542;28;9749;-80
2022/09/11 01:13:09;;;;;;;;;10.00;9.20;;;;;23.36;56.69;99194.94;5003429;28;8840;-81
2022/09/11 01:15:46;;;;;;;;;7.80;7.80;;;;;23.42;56.41;99189.28;5000350;28;9739;-84
2022/09/11 01:18:23;;;;;;;;;10.00;9.00;;;;;23.66;55.71;99189.59;5041709;28;8853;-81
2022/09/11 01:21:15;;;;;;;;;10.20;9.80;;;;;23.70;55.86;99185.78;5086147;28;8857;-82
2022/09/11 01:24:26;;;;;;;;;9.20;8.00;;;;;23.90;55.17;99183.78;5030330;28;8900;-84
2022/09/11 01:27:20;;;;;;;;;9.80;9.80;;;;;23.88;55.30;99177.69;5010793;28;8981;-79
2022/09/11 01:29:55;;;;;;;;;9.80;9.00;;;;;23.78;55.31;99182.69;4957402;28;8864;-79
2022/09/11 01:32:31;;;;;;;;;12.00;11.40;;;;;23.91;54.77;99180.13;4944326;28;8863;-80
2022/09/11 01:35:11;;;;;;;;;9.40;9.40;;;;;23.91;54.66;99180.13;4938412;28;8859;-79
2022/09/11 01:37:46;;;;;;;;;9.60;9.40;;;;;23.99;54.50;99180.53;4948740;28;8905;-81
2022/09/11 01:40:22;;;;;;;;;13.80;13.00;;;;;23.62;56.05;99192.53;4933506;28;8885;-80
2022/09/11 01:42:59;;;;;;;;;11.00;11.00;;;;;23.62;55.76;99188.06;4930046;28;9748;-83
2022/09/11 01:45:30;;;;;;;;;10.40;10.40;;;;;23.07;56.69;99196.66;4948479;28;8984;-82
2022/09/11 01:48:01;;;;;;;;;8.00;8.00;;;;;22.81;56.74;99200.75;4937313;28;8893;-81
2022/09/11 01:50:34;;;;;;;;;9.00;8.60;;;;;22.80;56.92;99204.34;4940536;28;8869;-83
2022/09/11 01:53:08;;;;;;;;;9.00;9.00;;;;;22.75;57.07;99199.31;4956458;28;8872;-81
2022/09/11 01:55:42;;;;;;;;;10.00;10.00;;;;;22.63;57.26;99199.97;4893535;28;8885;-81
2022/09/11 01:58:16;;;;;;;;;8.40;8.40;;;;;22.72;57.52;99202.13;4944240;28;8873;-83
2022/09/11 02:00:50;;;;;;;;;10.80;9.20;;;;;22.67;57.94;99197.06;4963230;28;8896;-80
2022/09/11 02:03:24;;;;;;;;;9.80;9.20;;;;;23.05;56.44;99193.22;5004192;28;8893;-82
2022/09/11 02:05:59;;;;;;;;;8.00;8.00;;;;;22.89;56.86;99199.38;5032162;28;8870;-82
2022/09/11 02:08:35;;;;;;;;;12.20;11.00;;;;;22.41;58.19;99201.19;5086114;28;8843;-80
2022/09/11 02:11:10;;;;;;;;;8.60;8.40;;;;;22.28;58.87;99208.09;5116330;27;8935;-80
2022/09/11 02:13:46;;;;;;;;;10.40;10.40;;;;;22.10;59.77;99212.59;5072881;28;8851;-80
2022/09/11 02:16:22;;;;;;;;;8.80;8.80;;;;;22.34;59.03;99205.09;5078644;28;8900;-82
2022/09/11 02:18:59;;;;;;;;;9.00;9.00;;;;;22.29;57.47;99204.53;5078873;28;8885;-81
2022/09/11 02:21:29;;;;;;;;;8.20;7.80;;;;;22.20;58.89;99211.16;5095280;28;8864;-80
2022/09/11 02:23:59;;;;;;;;;9.80;9.00;;;;;22.24;58.24;99209.19;5102866;28;8859;-79
2022/09/11 02:26:31;;;;;;;;;8.20;8.20;;;;;22.39;56.81;99205.72;5088762;28;8961;-82
2022/09/11 02:29:00;;;;;;;;;9.40;8.00;;;;;22.80;55.53;99207.00;5088262;28;8930;-84
2022/09/11 02:31:30;;;;;;;;;8.00;8.00;;;;;23.11;54.18;99204.34;5089346;28;8866;-82
2022/09/11 02:33:59;;;;;;;;;7.20;7.00;;;;;23.31;52.66;99208.53;5041698;28;8882;-83
2022/09/11 02:36:43;;;;;;;;;9.00;8.00;;;;;23.68;52.16;99198.34;5070630;28;8880;-84
2022/09/11 02:39:26;;;;;;;;;7.00;7.00;;;;;23.96;51.73;99201.19;5090388;28;8873;-83
2022/09/11 02:42:15;;;;;;;;;9.60;8.80;;;;;24.02;50.97;99198.97;5090943;28;8877;-83
2022/09/11 02:44:57;;;;;;;;;7.00;7.00;;;;;24.08;49.12;99190.63;5071687;28;8860;-83
2022/09/11 02:47:41;;;;;;;;;6.60;6.60;;;;;24.12;47.92;99192.16;5088998;28;8849;-82
2022/09/11 02:50:22;;;;;;;;;5.40;4.40;;;;;24.18;47.41;99188.25;5038187;28;8981;-83
2022/09/11 02:52:58;;;;;;;;;6.80;6.60;;;;;24.31;47.11;99188.34;5056923;28;8875;-84
2022/09/11 02:55:39;;;;;;;;;7.20;5.60;;;;;24.45;47.28;99188.31;5060578;28;8846;-81
2022/09/11 02:58:14;;;;;;;;;6.40;5.80;;;;;24.40;46.57;99193.06;5073469;28;8847;-83
2022/09/11 03:00:47;;;;;;;;;6.00;5.40;;;;;24.33;46.18;99183.75;5037882;28;10152;-82
2022/09/11 03:03:19;;;;;;;;;4.00;4.00;;;;;24.36;45.50;99177.38;5071109;28;8998;-84
2022/09/11 03:05:49;;;;;;;;;4.80;4.20;;;;;24.39;45.47;99187.84;5086448;28;8841;-83
2022/09/11 03:08:18;;;;;;;;;3.20;3.20;;;;;24.26;45.32;99185.94;5052393;28;8871;-84
2022/09/11 03:10:48;;;;;;;;;3.60;3.60;;;;;24.30;44.92;99195.44;5052597;28;8845;-82
2022/09/11 03:13:18;;;;;;;;;4.00;3.80;;;;;24.10;44.51;99204.72;5051923;28;9595;-83
2022/09/11 03:15:47;;;;;;;;;4.40;4.40;;;;;24.21;44.07;99193.38;5070312;28;9597;-84
2022/09/11 03:18:17;;;;;;;;;3.80;3.80;;;;;24.22;44.10;99199.56;5086779;28;9677;-84
2022/09/11 03:20:48;;;;;;;;;3.20;2.60;;;;;24.31;44.04;99202.50;5036508;28;8942;-83
2022/09/11 03:23:17;;;;;;;;;3.60;3.60;;;;;24.24;43.94;99198.50;5052962;28;8881;-82
2022/09/11 03:25:47;;;;;;;;;4.00;3.80;;;;;24.33;43.56;99195.28;5052939;28;8834;-84
2022/09/11 03:28:16;;;;;;;;;1.80;1.80;;;;;24.35;43.63;99200.50;5086427;28;8850;-84
2022/09/11 03:30:45;;;;;;;;;2.60;2.60;;;;;24.42;42.92;99195.63;5070033;28;8964;-85
2022/09/11 03:33:16;;;;;;;;;2.00;1.80;;;;;24.42;42.60;99198.28;5086517;28;8897;-83
2022/09/11 03:35:47;;;;;;;;;2.80;2.80;;;;;24.42;42.69;99191.16;5069296;28;8878;-86
2022/09/11 03:38:16;;;;;;;;;2.60;2.60;;;;;24.40;42.98;99201.06;5108597;27;8956;-84
2022/09/11 03:40:45;;;;;;;;;2.20;2.20;;;;;24.41;42.91;99204.59;5108953;28;8881;-85
2022/09/11 03:43:15;;;;;;;;;4.20;4.20;;;;;24.42;42.91;99206.28;5108388;28;8963;-85
2022/09/11 03:45:44;;;;;;;;;2.60;2.60;;;;;24.20;42.70;99205.00;5091548;28;8978;-83
2022/09/11 03:48:14;;;;;;;;;2.80;2.80;;;;;24.10;43.02;99210.03;5059005;28;8994;-87
2022/09/11 03:50:44;;;;;;;;;2.80;2.80;;;;;24.23;42.80;99199.44;5091159;28;8864;-83
2022/09/11 03:53:15;;;;;;;;;1.00;1.00;;;;;24.29;42.84;99208.88;5086703;28;8833;-83
2022/09/11 03:55:45;;;;;;;;;2.80;2.40;;;;;24.31;42.59;99207.84;5108621;28;8875;-85
2022/09/11 03:58:15;;;;;;;;;2.20;2.20;;;;;24.40;42.77;99211.72;5071223;28;8891;-84
2022/09/11 04:00:46;;;;;;;;;2.40;2.00;;;;;24.40;42.65;99206.38;5071559;28;8953;-84
2022/09/11 04:03:16;;;;;;;;;2.80;1.60;;;;;24.46;42.31;99208.69;5071352;28;8836;-84
2022/09/11 04:05:57;;;;;;;;;2.80;2.80;;;;;24.44;42.58;99215.94;5050502;28;8860;-84
2022/09/11 04:08:32;;;;;;;;;3.20;3.20;;;;;24.23;42.48;99214.59;5030864;28;8856;-83
2022/09/11 04:11:04;;;;;;;;;2.40;2.40;;;;;24.08;42.92;99227.94;5028610;28;8994;-84
2022/09/11 04:13:38;;;;;;;;;1.80;1.80;;;;;24.03;42.85;99227.34;5039338;28;8894;-84
2022/09/11 04:16:12;;;;;;;;;2.00;2.00;;;;;24.00;42.85;99222.19;5050609;28;8869;-83
2022/09/11 04:18:44;;;;;;;;;2.80;2.80;;;;;23.99;42.89;99216.94;5014158;28;8884;-84
2022/09/11 04:21:16;;;;;;;;;5.80;5.80;;;;;24.01;42.86;99231.91;5030388;28;8980;-84
2022/09/11 04:23:55;;;;;;;;;3.40;3.40;;;;;24.00;42.87;99232.00;5030498;28;8865;-84
2022/09/11 04:26:27;;;;;;;;;3.20;3.00;;;;;24.02;43.09;99230.94;5029716;28;8854;-85
2022/09/11 04:29:20;;;;;;;;;4.00;3.00;;;;;24.13;42.98;99219.63;5048017;28;8858;-85
2022/09/11 04:31:50;;;;;;;;;10.00;7.40;;;;;24.20;42.96;99225.47;5032634;28;8877;-86
2022/09/11 04:34:19;;;;;;;;;6.00;6.00;;;;;24.10;43.02;99227.81;5056340;28;8824;-83
2022/09/11 04:36:47;;;;;;;;;11.60;8.80;;;;;23.99;43.53;99227.59;5055591;28;8960;-83
2022/09/11 04:39:23;;;;;;;;;3.80;3.80;;;;;23.46;44.83;99233.38;5059869;28;8896;-83
2022/09/11 04:41:51;;;;;;;;;3.00;3.00;;;;;23.08;46.21;99232.94;5040441;28;8864;-85
2022/09/11 04:44:20;;;;;;;;;3.20;3.20;;;;;22.88;47.00;99240.22;5047806;28;8860;-83
2022/09/11 04:46:49;;;;;;;;;4.00;4.00;;;;;23.31;45.88;99239.59;5049017;28;8844;-82
2022/09/11 04:49:18;;;;;;;;;3.00;3.00;;;;;23.52;45.02;99238.34;5048463;28;8919;-83
2022/09/11 04:51:48;;;;;;;;;3.20;3.20;;;;;23.78;44.83;99230.63;5049074;28;8955;-83
2022/09/11 04:54:21;;;;;;;;;3.80;3.40;;;;;23.98;44.63;99231.25;5048536;28;9117;-82
2022/09/11 04:56:51;;;;;;;;;4.00;2.80;;;;;24.09;44.00;99234.94;5030140;28;8971;-85
2022/09/11 04:59:22;;;;;;;;;3.20;3.20;;;;;24.24;43.98;99237.63;5050096;28;8840;-82
2022/09/11 05:02:05;;;;;;;;;3.00;3.00;;;;;24.29;43.36;99239.06;5058199;28;8859;-82
2022/09/11 05:04:38;;;;;;;;;3.20;3.20;;;;;24.41;43.24;99228.59;5005401;28;8880;-86
2022/09/11 05:07:06;;;;;;;;;4.00;3.20;;;;;24.52;42.96;99226.13;5050947;28;8852;-86
2022/09/11 05:09:35;;;;;;;;;3.00;3.00;;;;;24.62;42.83;99226.41;5084789;28;8868;-84
2022/09/11 05:12:07;;;;;;;;;3.40;3.00;;;;;24.70;42.33;99221.41;5035454;28;8825;-84
2022/09/11 05:14:37;;;;;;;;;2.80;2.80;;;;;24.77;42.76;99220.09;5080279;28;8847;-83
2022/09/11 05:17:06;;;;;;;;;20.40;20.40;;;;;24.81;42.69;99224.25;5045487;28;8857;-83
2022/09/11 05:19:39;;;;;;;;;7.20;7.20;;;;;24.83;42.22;99227.69;5045469;28;8955;-83
2022/09/11 05:22:09;;;;;;;;;7.80;6.40;;;;;24.85;42.17;99216.91;5045629;28;8884;-84
2022/09/11 05:24:41;;;;;;;;;3.80;3.20;;;;;24.85;42.19;99228.44;5074995;28;8912;-83
2022/09/11 05:27:13;;;;;;;;;3.60;3.60;;;;;24.44;43.17;99236.38;5068600;28;9070;-82
2022/09/11 05:29:42;;;;;;;;;4.40;3.60;;;;;24.35;42.74;99235.16;5085878;28;8858;-84
2022/09/11 05:32:14;;;;;;;;;2.00;2.00;;;;;24.39;43.05;99235.81;5080189;28;9583;-83
2022/09/11 05:34:43;;;;;;;;;2.40;2.40;;;;;24.37;42.67;99240.41;5066411;28;8967;-84
2022/09/11 05:37:17;;;;;;;;;3.00;1.80;;;;;24.47;42.46;99238.84;5084723;28;8855;-82
2022/09/11 05:39:50;;;;;;;;;1.80;1.80;;;;;24.49;42.11;99245.78;5069696;28;8864;-83
2022/09/11 05:42:21;;;;;;;;;0.80;0.80;;;;;24.52;42.17;99242.13;5068316;28;8865;-82
2022/09/11 05:44:54;;;;;;;;;3.80;2.60;;;;;24.34;42.59;99252.09;5100411;28;9633;-82
2022/09/11 05:47:26;;;;;;;;;6.00;4.60;;;;;23.63;44.64;99263.44;5084761;28;8857;-83
2022/09/11 05:50:20;;;;;;;;;6.00;4.00;;;;;24.00;44.05;99253.31;5070466;28;8912;-82
2022/09/11 05:52:54;;;;;;;;;2.00;2.00;;;;;24.02;43.33;99248.75;5056157;28;8858;-81
2022/09/11 05:55:24;;;;;;;;;3.40;3.40;;;;;24.26;42.89;99249.91;5063607;28;8860;-86
2022/09/11 05:57:54;;;;;;;;;3.00;3.00;;;;;24.45;42.40;99248.75;5030081;28;8904;-86
2022/09/11 06:00:53;;;;;;;;;2.80;2.00;;;;;24.57;41.46;99248.00;5041654;28;9678;-83
2022/09/11 06:03:23;;;;;;;;;0.80;0.80;;;;;24.76;40.29;99252.19;4995266;28;8842;-81
2022/09/11 06:05:51;;;;;;;;;1.80;1.80;;;;;24.83;40.24;99251.69;5010470;28;8870;-83
2022/09/11 06:08:20;;;;;;;;;1.20;1.20;;;;;24.96;39.56;99257.09;5009810;28;8861;-89
2022/09/11 06:11:06;;;;;;;;;16.20;15.00;;;;;25.23;40.07;99256.28;5034212;28;9761;-85
2022/09/11 06:13:39;;;;;;;;;17.40;15.60;;;;;25.29;39.99;99259.41;5005014;28;8885;-87
2022/09/11 06:16:10;;;;;;;;;4.40;3.00;;;;;25.42;39.17;99263.91;4969514;28;8951;-85
2022/09/11 06:18:47;;;;;;;;;3.40;3.40;;;;;25.17;39.76;99265.50;4961919;28;8879;-85
2022/09/11 06:21:19;;;;;;;;;2.60;2.60;;;;;23.94;42.39;99259.88;4961965;28;8883;-83
2022/09/11 06:23:56;;;;;;;;;2.20;2.00;;;;;23.66;42.81;99264.13;4978878;28;8875;-86
2022/09/11 06:26:28;;;;;;;;;1.60;1.60;;;;;23.71;42.58;99259.41;4935075;28;8975;-84
2022/09/11 06:29:33;;;;;;;;;2.40;2.40;;;;;24.16;41.82;99247.88;4969734;28;8891;-86
2022/09/11 06:35:44;;;;;;;;;3.80;3.00;;;;;24.81;40.93;99234.06;5030631;28;8870;-88
2022/09/11 06:38:16;;;;;;;;;2.20;2.20;;;;;24.44;40.77;99242.59;5080856;28;9133;-85
2022/09/11 06:40:56;;;;;;;;;2.80;2.80;;;;;23.69;42.84;99253.31;5046516;28;8878;-87
2022/09/11 06:43:31;;;;;;;;;2.40;2.40;;;;;23.99;42.38;99247.13;5022215;28;8878;-85
2022/09/11 06:46:11;;;;;;;;;2.60;2.60;;;;;23.52;43.48;99250.78;5035814;28;8972;-87
2022/09/11 06:48:43;;;;;;;;;5.60;5.60;;;;;23.20;44.19;99239.38;5049805;28;8852;-86
2022/09/11 06:51:23;;;;;;;;;4.00;3.40;;;;;23.58;43.71;99233.59;5015066;28;8862;-85
2022/09/11 06:53:56;;;;;;;;;1.00;1.00;;;;;24.25;42.07;99242.00;5044353;28;8901;-84
2022/09/11 06:56:40;;;;;;;;;3.00;3.00;;;;;24.75;41.01;99248.66;5068503;28;8834;-81
2022/09/11 06:59:10;;;;;;;;;2.40;2.40;;;;;24.93;40.83;99257.28;5050902;28;8848;-77
2022/09/11 07:01:40;;;;;;;;;3.40;2.80;;;;;24.21;42.51;99261.78;5053387;28;8848;-76
2022/09/11 07:04:09;;;;;;;;;5.80;5.80;;;;;23.77;43.57;99271.50;5076696;28;8896;-76
2022/09/11 07:06:38;;;;;;;;;4.00;4.00;;;;;23.75;45.25;99276.91;5095435;27;9012;-76
2022/09/11 07:09:06;;;;;;;;;7.60;7.60;;;;;23.59;46.52;99284.09;5070511;28;8854;-75
2022/09/11 07:11:45;;;;;;;;;6.20;4.40;;;;;23.85;46.15;99279.91;5104743;28;8867;-76
2022/09/11 07:14:19;;;;;;;;;3.00;3.00;;;;;24.11;45.59;99275.69;5099523;27;10046;-74
2022/09/11 07:16:53;;;;;;;;;5.00;5.00;;;;;24.73;44.82;99276.41;5057159;28;8875;-75
2022/09/11 07:19:24;;;;;;;;;10.20;8.00;;;;;24.99;45.07;99274.69;5104142;28;9652;-75
2022/09/11 07:21:53;;;;;;;;;8.20;8.20;;;;;24.17;46.66;99285.09;5085106;28;8850;-76
2022/09/11 07:24:25;;;;;;;;;8.20;8.20;;;;;23.98;47.74;99288.03;5096072;27;8923;-76
2022/09/11 07:26:54;;;;;;;;;6.40;6.40;;;;;23.55;48.25;99287.88;5070319;28;8846;-75
2022/09/11 07:29:30;;;;;;;;;4.00;4.00;;;;;24.00;47.40;99286.13;5088140;28;8919;-75
2022/09/11 07:32:00;;;;;;;;;5.60;5.60;;;;;24.57;46.08;99281.81;5087677;28;8943;-81
2022/09/11 07:34:29;;;;;;;;;4.60;4.60;;;;;24.93;44.61;99278.63;5090789;28;9010;-83
2022/09/11 07:37:02;;;;;;;;;7.00;5.00;;;;;24.92;43.88;99282.25;5096021;28;8980;-87
2022/09/11 07:39:30;;;;;;;;;6.20;5.80;;;;;24.35;45.51;99285.81;5069768;28;8850;-83
2022/09/11 07:42:06;;;;;;;;;4.00;4.00;;;;;23.79;46.43;99282.09;5071721;28;8909;-85
2022/09/11 07:44:36;;;;;;;;;3.40;3.20;;;;;23.43;46.74;99301.91;5087256;28;9531;-83
2022/09/11 07:47:06;;;;;;;;;4.60;4.60;;;;;22.95;48.11;99294.78;5078702;28;8843;-82
2022/09/11 07:49:41;;;;;;;;;4.00;4.00;;;;;23.09;47.41;99307.31;5093998;28;8867;-85
2022/09/11 07:52:11;;;;;;;;;6.00;5.20;;;;;22.74;47.20;99304.78;5091025;28;8982;-87
2022/09/11 07:54:50;;;;;;;;;3.20;3.20;;;;;22.48;48.18;99313.31;5053023;28;8846;-76
2022/09/11 07:57:23;;;;;;;;;3.20;3.20;;;;;22.50;48.11;99306.13;5084304;28;8892;-75
2022/09/11 07:59:52;;;;;;;;;3.60;3.60;;;;;22.70;47.34;99320.97;5090596;28;8928;-82
2022/09/11 08:02:22;;;;;;;;;2.40;2.40;;;;;22.66;46.96;99327.41;5088423;28;8988;-80
2022/09/11 08:04:52;;;;;;;;;2.60;2.00;;;;;23.03;45.85;99320.09;5083049;28;8846;-82
2022/09/11 08:07:22;;;;;;;;;3.20;2.60;;;;;22.82;45.70;99316.81;5065248;28;8926;-81
2022/09/11 08:09:51;;;;;;;;;1.80;1.80;;;;;23.01;45.19;99317.50;5050081;28;8895;-82
2022/09/11 08:12:40;;;;;;;;;3.20;3.20;;;;;23.95;43.94;99309.53;5047171;28;8931;-81
2022/09/11 08:15:09;;;;;;;;;2.00;2.00;;;;;24.02;41.74;99302.03;5040487;28;8890;-81
2022/09/11 08:17:39;;;;;;;;;1.80;1.80;;;;;24.09;41.14;99290.91;5063230;28;8868;-79
2022/09/11 08:20:09;;;;;;;;;1.00;1.00;;;;;23.84;41.19;99304.84;5070492;28;8836;-79
2022/09/11 08:22:37;;;;;;;;;3.60;1.80;;;;;24.57;40.65;99297.81;5057504;28;8979;-82
2022/09/11 08:25:06;;;;;;;;;1.60;0.60;;;;;23.93;40.11;99317.63;5055031;28;8936;-78
2022/09/11 08:27:36;;;;;;;;;0.80;0.80;;;;;24.26;39.51;99313.00;5017090;28;8852;-78
2022/09/11 08:30:09;;;;;;;;;1.00;1.00;;;;;23.60;40.98;99322.22;5050767;28;8848;-79
2022/09/11 08:32:40;;;;;;;;;1.60;1.60;;;;;24.15;40.20;99310.97;5051589;28;9022;-80
2022/09/11 08:35:09;;;;;;;;;0.80;0.80;;;;;23.79;40.87;99314.91;5068600;28;8890;-80
2022/09/11 08:37:39;;;;;;;;;1.60;1.60;;;;;23.86;41.95;99312.75;5068363;28;9005;-80
2022/09/11 08:40:10;;;;;;;;;18.60;18.00;;;;;23.84;42.39;99314.63;5110479;28;8854;-80
2022/09/11 08:42:41;;;;;;;;;2.60;2.60;;;;;23.74;43.12;99308.94;5091705;28;8939;-79
2022/09/11 08:45:15;;;;;;;;;2.40;2.20;;;;;24.03;42.45;99314.41;5067208;28;8966;-81
2022/09/11 08:47:50;;;;;;;;;0.60;0.60;;;;;24.09;41.54;99314.03;5083268;28;8863;-79
2022/09/11 08:50:23;;;;;;;;;1.20;1.00;;;;;23.65;42.58;99302.38;5049421;28;8890;-79
2022/09/11 08:52:54;;;;;;;;;1.00;1.00;;;;;23.75;43.22;99306.19;5066180;28;8868;-80
2022/09/11 08:55:32;;;;;;;;;2.80;1.80;;;;;23.63;43.72;99296.28;5048826;28;8991;-79
2022/09/11 08:58:14;;;;;;;;;2.00;1.40;;;;;23.56;43.85;99305.56;5065049;28;8856;-81
2022/09/11 09:00:54;;;;;;;;;3.20;3.20;;;;;23.12;44.87;99312.47;5065687;28;8995;-78
2022/09/11 09:03:54;;;;;;;;;3.20;3.20;;;;;23.19;45.45;99305.00;5014023;28;9014;-80
2022/09/11 09:06:39;;;;;;;;;2.00;2.00;;;;;23.10;45.83;99313.50;4991541;28;8926;-82
2022/09/11 09:09:15;;;;;;;;;4.00;3.60;;;;;22.82;46.77;99308.84;5042290;28;8929;-78
2022/09/11 09:11:54;;;;;;;;;2.60;2.60;;;;;22.94;46.09;99318.78;5008852;28;8872;-79
2022/09/11 09:14:51;;;;;;;;;2.00;2.00;;;;;23.15;46.17;99314.09;5007152;28;8860;-79
2022/09/11 09:17:23;;;;;;;;;4.40;4.40;;;;;23.10;45.62;99319.69;5037437;28;8847;-80
2022/09/11 09:20:01;;;;;;;;;3.80;2.60;;;;;23.31;45.50;99312.31;5048934;28;8851;-79
2022/09/11 09:22:39;;;;;;;;;4.00;4.00;;;;;23.39;44.39;99303.03;5048646;28;8867;-81
2022/09/11 09:25:13;;;;;;;;;4.00;4.00;;;;;23.81;43.69;99302.34;5048160;28;9680;-79
2022/09/11 09:27:47;;;;;;;;;2.00;2.00;;;;;23.93;43.30;99298.97;5048553;28;8836;-80
2022/09/11 09:30:20;;;;;;;;;2.20;2.20;;;;;23.77;42.92;99300.78;5065383;28;8832;-79
2022/09/11 09:32:55;;;;;;;;;3.60;3.60;;;;;24.05;43.42;99302.69;5044212;28;8851;-78
2022/09/11 09:35:32;;;;;;;;;2.80;2.80;;;;;23.94;43.85;99305.16;5093626;27;8938;-78
2022/09/11 09:38:01;;;;;;;;;2.20;2.20;;;;;23.31;45.44;99306.13;5067452;28;8858;-83
2022/09/11 09:40:33;;;;;;;;;2.80;2.80;;;;;23.25;45.83;99306.44;5069451;28;8940;-84
2022/09/11 09:43:18;;;;;;;;;3.60;3.60;;;;;23.75;44.71;99295.53;5068932;28;8846;-81
2022/09/11 09:46:01;;;;;;;;;3.40;2.40;;;;;23.89;44.15;99297.44;5069528;28;8885;-82
2022/09/11 09:48:38;;;;;;;;;1.80;1.80;;;;;23.31;44.63;99317.63;5078655;28;8964;-81
2022/09/11 09:51:12;;;;;;;;;2.00;2.00;;;;;23.01;45.63;99298.88;5075982;28;8876;-80
2022/09/11 09:53:44;;;;;;;;;1.80;1.80;;;;;23.77;44.06;99299.94;5067475;28;8853;-82
2022/09/11 09:56:16;;;;;;;;;5.80;5.80;;;;;24.15;43.40;99295.00;5068329;28;8850;-84
2022/09/11 09:58:54;;;;;;;;;3.20;3.20;;;;;23.95;43.79;99296.22;5067141;28;8850;-81
2022/09/11 10:01:45;;;;;;;;;3.00;3.00;;;;;24.37;43.00;99296.38;5083745;28;8838;-82
2022/09/11 10:04:18;;;;;;;;;2.80;2.80;;;;;24.35;42.80;99300.91;5070160;28;8839;-84
2022/09/11 10:06:50;;;;;;;;;2.40;1.40;;;;;24.20;43.36;99297.41;5056463;28;8856;-83
2022/09/11 10:09:26;;;;;;;;;3.60;3.60;;;;;24.30;43.25;99296.72;5087493;28;8854;-81
2022/09/11 10:12:00;;;;;;;;;11.80;11.40;;;;;24.61;43.08;99296.66;5070653;28;8964;-81
2022/09/11 10:14:32;;;;;;;;;4.00;3.40;;;;;24.32;43.69;99305.47;5070706;28;8850;-82
2022/09/11 10:17:22;;;;;;;;;1.60;1.60;;;;;24.02;44.43;99302.88;5089719;28;8877;-83
2022/09/11 10:19:54;;;;;;;;;0.60;0.60;;;;;24.05;44.23;99305.34;5075565;28;8842;-81
2022/09/11 10:22:27;;;;;;;;;1.00;0.60;;;;;23.60;42.59;99312.41;5108518;27;8846;-81
2022/09/11 10:25:09;;;;;;;;;1.60;1.60;;;;;23.48;43.28;99302.50;5056311;28;8854;-81
2022/09/11 10:27:46;;;;;;;;;2.00;2.00;;;;;23.40;43.41;99316.22;5071605;28;8838;-80
2022/09/11 10:30:30;;;;;;;;;0.20;0.20;;;;;22.81;44.58;99313.28;5071024;28;8926;-81
2022/09/11 10:33:02;;;;;;;;;1.80;1.60;;;;;22.55;46.60;99317.34;5071747;28;8854;-82
2022/09/11 10:35:35;;;;;;;;;5.20;4.20;;;;;22.86;47.19;99311.22;5086034;28;8863;-81
2022/09/11 10:38:16;;;;;;;;;18.60;17.20;;;;;23.52;45.89;99299.56;5037647;28;8838;-83
2022/09/11 10:40:55;;;;;;;;;5.00;5.00;;;;;23.85;45.72;99303.03;5062143;28;8859;-81
2022/09/11 10:43:30;;;;;;;;;2.60;1.40;;;;;23.35;45.64;99307.66;5067353;28;8865;-82
2022/09/11 10:46:05;;;;;;;;;1.60;1.60;;;;;23.28;46.58;99303.63;5085775;28;9128;-80
2022/09/11 10:48:33;;;;;;;;;5.60;5.00;;;;;23.85;46.47;99295.88;5069131;28;8894;-81
2022/09/11 10:51:06;;;;;;;;;3.80;3.80;;;;;23.97;45.13;99302.31;5086122;28;8855;-81
2022/09/11 10:53:46;;;;;;;;;2.00;2.00;;;;;23.87;45.90;99307.31;5059656;28;8860;-82
2022/09/11 10:56:16;;;;;;;;;3.00;3.00;;;;;23.51;46.77;99307.63;5052037;28;8851;-83
2022/09/11 10:58:47;;;;;;;;;3.80;2.20;;;;;23.46;46.93;99304.34;5067303;28;8868;-82
2022/09/11 11:01:22;;;;;;;;;4.60;3.60;;;;;23.67;46.86;99307.59;5067374;28;8840;-78
2022/09/11 11:03:51;;;;;;;;;2.80;2.80;;;;;23.28;47.98;99307.13;5050907;28;9065;-82
2022/09/11 11:06:39;;;;;;;;;6.00;6.00;;;;;22.58;49.62;99314.53;5051262;28;8974;-81
2022/09/11 11:09:36;;;;;;;;;2.20;2.20;;;;;22.07;51.18;99322.47;5070179;28;8879;-81
2022/09/11 11:12:21;;;;;;;;;2.00;1.00;;;;;21.82;52.63;99312.25;5037995;28;8848;-81
2022/09/11 11:15:05;;;;;;;;;1.00;1.00;;;;;21.79;52.92;99317.72;5052909;28;8866;-82
2022/09/11 11:17:42;;;;;;;;;2.40;2.40;;;;;21.99;53.97;99316.72;5052890;28;8848;-83
2022/09/11 11:20:30;;;;;;;;;5.00;3.40;;;;;21.68;56.25;99309.41;5053200;28;8873;-86
2022/09/11 11:23:18;;;;;;;;;3.00;3.00;;;;;21.80;57.99;99304.34;5068322;28;8880;-84
2022/09/11 11:26:00;;;;;;;;;3.00;3.00;;;;;21.90;57.90;99309.22;5069873;28;8871;-85
2022/09/11 11:28:47;;;;;;;;;1.20;1.20;;;;;22.15;57.66;99293.72;5072835;28;8984;-82
2022/09/11 11:31:33;;;;;;;;;3.20;3.20;;;;;22.42;57.22;99287.06;5053745;28;8898;-83
2022/09/11 11:34:33;;;;;;;;;3.00;3.00;;;;;22.39;55.87;99272.16;5058748;28;8966;-82
2022/09/11 11:37:10;;;;;;;;;1.60;0.80;;;;;22.23;54.62;99269.44;5063799;28;8988;-82
2022/09/11 11:39:46;;;;;;;;;5.80;5.80;;;;;22.57;54.64;99254.31;5044800;28;8876;-84
2022/09/11 11:42:22;;;;;;;;;5.80;5.40;;;;;22.70;55.08;99259.84;5047500;28;8858;-83
2022/09/11 11:44:54;;;;;;;;;3.80;3.40;;;;;23.05;53.93;99265.03;5049895;28;8843;-83
2022/09/11 11:47:30;;;;;;;;;1.00;1.00;;;;;22.22;51.59;99264.19;5048600;28;9609;-81
2022/09/11 11:50:06;;;;;;;;;2.80;2.80;;;;;22.13;56.51;99269.03;5082842;28;8851;-81
2022/09/11 11:52:45;;;;;;;;;3.00;3.00;;;;;21.86;58.52;99266.03;5087392;28;8851;-80
2022/09/11 11:55:19;;;;;;;;;3.40;2.40;;;;;21.81;58.16;99268.03;5098222;28;8888;-84
2022/09/11 11:58:00;;;;;;;;;3.60;3.60;;;;;21.71;60.81;99261.50;5109702;28;8886;-81
2022/09/11 12:00:34;;;;;;;;;4.80;4.20;;;;;22.15;59.04;99255.66;5080185;28;8873;-83
2022/09/11 12:03:13;;;;;;;;;8.00;7.00;;;;;21.93;60.81;99256.81;5103469;28;8855;-84
2022/09/11 12:05:42;;;;;;;;;8.20;5.60;;;;;21.73;59.84;99255.16;5091287;28;8842;-78
2022/09/11 12:08:13;;;;;;;;;6.20;4.40;;;;;21.66;60.75;99263.53;5084378;28;8912;-79
2022/09/11 12:10:46;;;;;;;;;6.00;6.00;;;;;21.66;62.22;99259.06;5082816;28;8847;-79
2022/09/11 12:13:19;;;;;;;;;5.60;5.40;;;;;21.88;62.69;99258.84;5091838;28;8847;-80
2022/09/11 12:16:04;;;;;;;;;8.60;7.60;;;;;22.22;62.38;99250.91;5103422;27;8847;-76
2022/09/11 12:18:40;;;;;;;;;5.00;5.00;;;;;22.54;61.54;99242.06;5103521;28;8885;-79